sensor_id;sensor_type;location;lat;lon;timestamp;temperature;humidity
9837;DHT22;4957;51.412;6.724;2023-12-29T00:01:54;10.50;99.90
9837;DHT22;4957;51.412;6.724;2023-12-29T00:04:20;10.50;99.90
9837;DHT22;4957;51.412;6.724;2023-12-29T00:06:46;10.60;99.90
9837;DHT22;4957;51.412;6.724;2023-12-29T00:09:11;10.50;99.90
9837;DHT22;4957;51.412;6.724;2023-12-29T00:11:38;10.50;99.90
9837;DHT22;4957;51.412;6.724;2023-12-29T00:14:04;10.50;99.90
9837;DHT22;4957;51.412;6.724;2023-12-29T00:16:29;10.60;99.90
9837;DHT22;4957;51.412;6.724;2023-12-29T00:18:55;10.60;99.90
9837;DHT22;4957;51.412;6.724;2023-12-29T00:21:20;10.60;99.90
9837;DHT22;4957;51.412;6.724;2023-12-29T00:23:47;10.60;99.90
9837;DHT22;4957;51.412;6.724;2023-12-29T00:26:16;10.60;99.90
9837;DHT22;4957;51.412;6.724;2023-12-29T00:28:42;10.60;99.90
9837;DHT22;4957;51.412;6.724;2023-12-29T00:31:08;10.60;99.90
9837;DHT22;4957;51.412;6.724;2023-12-29T00:33:34;10.60;99.90
9837;DHT22;4957;51.412;6.724;2023-12-29T00:36:00;10.60;99.90
9837;DHT22;4957;51.412;6.724;2023-12-29T00:38:26;10.60;99.90
9837;DHT22;4957;51.412;6.724;2023-12-29T00:40:53;10.70;99.90
9837;DHT22;4957;51.412;6.724;2023-12-29T00:43:19;10.70;99.90
9837;DHT22;4957;51.412;6.724;2023-12-29T00:45:45;10.70;99.90
9837;DHT22;4957;51.412;6.724;2023-12-29T00:48:11;10.70;99.90
9837;DHT22;4957;51.412;6.724;2023-12-29T00:50:36;10.70;99.90
9837;DHT22;4957;51.412;6.724;2023-12-29T00:53:02;10.70;99.90
9837;DHT22;4957;51.412;6.724;2023-12-29T00:55:27;10.70;99.90
9837;DHT22;4957;51.412;6.724;2023-12-29T00:57:53;10.70;99.90
9837;DHT22;4957;51.412;6.724;2023-12-29T01:00:19;10.70;99.90
9837;DHT22;4957;51.412;6.724;2023-12-29T01:02:45;10.70;99.90
9837;DHT22;4957;51.412;6.724;2023-12-29T01:05:15;10.70;99.90
9837;DHT22;4957;51.412;6.724;2023-12-29T01:07:41;10.70;99.90
9837;DHT22;4957;51.412;6.724;2023-12-29T01:10:08;10.70;99.90
9837;DHT22;4957;51.412;6.724;2023-12-29T01:12:33;10.70;99.90
9837;DHT22;4957;51.412;6.724;2023-12-29T01:14:59;10.70;99.90
9837;DHT22;4957;51.412;6.724;2023-12-29T01:17:25;10.70;99.90
9837;DHT22;4957;51.412;6.724;2023-12-29T01:19:52;10.70;99.90
9837;DHT22;4957;51.412;6.724;2023-12-29T01:22:18;10.70;99.90
9837;DHT22;4957;51.412;6.724;2023-12-29T01:24:44;10.70;99.90
9837;DHT22;4957;51.412;6.724;2023-12-29T01:27:10;10.70;99.90
9837;DHT22;4957;51.412;6.724;2023-12-29T01:29:35;10.70;99.90
9837;DHT22;4957;51.412;6.724;2023-12-29T01:32:01;10.70;99.90
9837;DHT22;4957;51.412;6.724;2023-12-29T01:34:29;10.70;99.90
9837;DHT22;4957;51.412;6.724;2023-12-29T01:36:58;10.70;99.90
9837;DHT22;4957;51.412;6.724;2023-12-29T01:39:24;10.80;99.90
9837;DHT22;4957;51.412;6.724;2023-12-29T01:41:50;10.80;99.90
9837;DHT22;4957;51.412;6.724;2023-12-29T01:44:22;10.80;99.90
9837;DHT22;4957;51.412;6.724;2023-12-29T01:46:53;10.80;99.90
9837;DHT22;4957;51.412;6.724;2023-12-29T01:49:20;10.80;99.90
9837;DHT22;4957;51.412;6.724;2023-12-29T01:52:00;10.70;99.90
9837;DHT22;4957;51.412;6.724;2023-12-29T01:54:30;10.70;99.90
9837;DHT22;4957;51.412;6.724;2023-12-29T01:56:59;10.70;99.90
9837;DHT22;4957;51.412;6.724;2023-12-29T01:59:26;10.70;99.90
9837;DHT22;4957;51.412;6.724;2023-12-29T02:01:53;10.70;99.90
9837;DHT22;4957;51.412;6.724;2023-12-29T02:04:21;10.70;99.90
9837;DHT22;4957;51.412;6.724;2023-12-29T02:06:48;10.70;99.90
9837;DHT22;4957;51.412;6.724;2023-12-29T02:09:15;10.70;99.90
9837;DHT22;4957;51.412;6.724;2023-12-29T02:11:42;10.70;99.90
9837;DHT22;4957;51.412;6.724;2023-12-29T02:14:08;10.70;99.90
9837;DHT22;4957;51.412;6.724;2023-12-29T02:16:52;10.70;99.90
9837;DHT22;4957;51.412;6.724;2023-12-29T02:22:00;10.70;99.90
9837;DHT22;4957;51.412;6.724;2023-12-29T02:24:25;10.60;99.90
9837;DHT22;4957;51.412;6.724;2023-12-29T02:26:57;10.60;99.90
9837;DHT22;4957;51.412;6.724;2023-12-29T02:29:27;10.60;99.90
9837;DHT22;4957;51.412;6.724;2023-12-29T02:31:56;10.60;99.90
9837;DHT22;4957;51.412;6.724;2023-12-29T02:34:24;10.60;99.90
9837;DHT22;4957;51.412;6.724;2023-12-29T02:36:51;10.60;99.90
9837;DHT22;4957;51.412;6.724;2023-12-29T02:39:17;10.50;99.90
9837;DHT22;4957;51.412;6.724;2023-12-29T02:41:43;10.50;99.90
9837;DHT22;4957;51.412;6.724;2023-12-29T02:44:09;10.60;99.90
9837;DHT22;4957;51.412;6.724;2023-12-29T02:46:35;10.50;99.90
9837;DHT22;4957;51.412;6.724;2023-12-29T02:49:00;10.60;99.90
9837;DHT22;4957;51.412;6.724;2023-12-29T02:51:26;10.60;99.90
9837;DHT22;4957;51.412;6.724;2023-12-29T02:53:52;10.50;99.90
9837;DHT22;4957;51.412;6.724;2023-12-29T02:56:17;10.50;99.90
9837;DHT22;4957;51.412;6.724;2023-12-29T02:58:43;10.50;99.90
9837;DHT22;4957;51.412;6.724;2023-12-29T03:01:11;10.50;99.90
9837;DHT22;4957;51.412;6.724;2023-12-29T03:03:37;10.50;99.90
9837;DHT22;4957;51.412;6.724;2023-12-29T03:06:05;10.50;99.90
9837;DHT22;4957;51.412;6.724;2023-12-29T03:08:31;10.50;99.90
9837;DHT22;4957;51.412;6.724;2023-12-29T03:10:58;10.50;99.90
9837;DHT22;4957;51.412;6.724;2023-12-29T03:13:24;10.50;99.90
9837;DHT22;4957;51.412;6.724;2023-12-29T03:15:50;10.50;99.90
9837;DHT22;4957;51.412;6.724;2023-12-29T03:18:15;10.50;99.90
9837;DHT22;4957;51.412;6.724;2023-12-29T03:20:41;10.50;99.90
9837;DHT22;4957;51.412;6.724;2023-12-29T03:23:07;10.50;99.90
9837;DHT22;4957;51.412;6.724;2023-12-29T03:25:32;10.50;99.90
9837;DHT22;4957;51.412;6.724;2023-12-29T03:27:58;10.50;99.90
9837;DHT22;4957;51.412;6.724;2023-12-29T03:30:24;10.50;99.90
9837;DHT22;4957;51.412;6.724;2023-12-29T03:32:50;10.40;99.90
9837;DHT22;4957;51.412;6.724;2023-12-29T03:35:15;10.50;99.90
9837;DHT22;4957;51.412;6.724;2023-12-29T03:37:42;10.40;99.90
9837;DHT22;4957;51.412;6.724;2023-12-29T03:40:08;10.50;99.90
9837;DHT22;4957;51.412;6.724;2023-12-29T03:42:34;10.50;99.90
9837;DHT22;4957;51.412;6.724;2023-12-29T03:45:00;10.50;99.90
9837;DHT22;4957;51.412;6.724;2023-12-29T03:47:25;10.50;99.90
9837;DHT22;4957;51.412;6.724;2023-12-29T03:49:51;10.50;99.90
9837;DHT22;4957;51.412;6.724;2023-12-29T03:52:16;10.50;99.90
9837;DHT22;4957;51.412;6.724;2023-12-29T03:54:42;10.40;99.90
9837;DHT22;4957;51.412;6.724;2023-12-29T03:57:08;10.50;99.90
9837;DHT22;4957;51.412;6.724;2023-12-29T03:59:36;10.50;99.90
9837;DHT22;4957;51.412;6.724;2023-12-29T04:02:03;10.40;99.90
9837;DHT22;4957;51.412;6.724;2023-12-29T04:04:28;10.50;99.90
9837;DHT22;4957;51.412;6.724;2023-12-29T04:06:54;10.50;99.90
9837;DHT22;4957;51.412;6.724;2023-12-29T04:09:20;10.40;99.90
9837;DHT22;4957;51.412;6.724;2023-12-29T04:11:46;10.40;99.90
9837;DHT22;4957;51.412;6.724;2023-12-29T04:14:12;10.40;99.90
9837;DHT22;4957;51.412;6.724;2023-12-29T04:16:38;10.40;99.90
9837;DHT22;4957;51.412;6.724;2023-12-29T04:19:04;10.40;99.90
9837;DHT22;4957;51.412;6.724;2023-12-29T04:21:30;10.40;99.90
9837;DHT22;4957;51.412;6.724;2023-12-29T04:23:56;10.40;99.90
9837;DHT22;4957;51.412;6.724;2023-12-29T04:26:21;10.40;99.90
9837;DHT22;4957;51.412;6.724;2023-12-29T04:28:47;10.40;99.90
9837;DHT22;4957;51.412;6.724;2023-12-29T04:31:13;10.30;99.90
9837;DHT22;4957;51.412;6.724;2023-12-29T04:33:38;10.30;99.90
9837;DHT22;4957;51.412;6.724;2023-12-29T04:36:04;10.30;99.90
9837;DHT22;4957;51.412;6.724;2023-12-29T04:38:30;10.30;99.90
9837;DHT22;4957;51.412;6.724;2023-12-29T04:40:56;10.30;99.90
9837;DHT22;4957;51.412;6.724;2023-12-29T04:43:21;10.30;99.90
9837;DHT22;4957;51.412;6.724;2023-12-29T04:45:47;10.30;99.90
9837;DHT22;4957;51.412;6.724;2023-12-29T04:48:13;10.30;99.90
9837;DHT22;4957;51.412;6.724;2023-12-29T04:50:38;10.30;99.90
9837;DHT22;4957;51.412;6.724;2023-12-29T04:53:04;10.30;99.90
9837;DHT22;4957;51.412;6.724;2023-12-29T04:55:30;10.30;99.90
9837;DHT22;4957;51.412;6.724;2023-12-29T04:57:55;10.30;99.90
9837;DHT22;4957;51.412;6.724;2023-12-29T05:00:21;10.20;99.90
9837;DHT22;4957;51.412;6.724;2023-12-29T05:02:47;10.30;99.90
9837;DHT22;4957;51.412;6.724;2023-12-29T05:05:12;10.20;99.90
9837;DHT22;4957;51.412;6.724;2023-12-29T05:07:38;10.20;99.90
9837;DHT22;4957;51.412;6.724;2023-12-29T05:10:04;10.20;99.90
9837;DHT22;4957;51.412;6.724;2023-12-29T05:12:30;10.20;99.90
9837;DHT22;4957;51.412;6.724;2023-12-29T05:14:55;10.20;99.90
9837;DHT22;4957;51.412;6.724;2023-12-29T05:17:21;10.20;99.90
9837;DHT22;4957;51.412;6.724;2023-12-29T05:19:47;10.20;99.90
9837;DHT22;4957;51.412;6.724;2023-12-29T05:22:12;10.10;99.90
9837;DHT22;4957;51.412;6.724;2023-12-29T05:24:42;10.10;99.90
9837;DHT22;4957;51.412;6.724;2023-12-29T05:27:08;10.10;99.90
9837;DHT22;4957;51.412;6.724;2023-12-29T05:29:34;10.10;99.90
9837;DHT22;4957;51.412;6.724;2023-12-29T05:31:59;10.10;99.90
9837;DHT22;4957;51.412;6.724;2023-12-29T05:34:27;10.10;99.90
9837;DHT22;4957;51.412;6.724;2023-12-29T05:36:53;10.10;99.90
9837;DHT22;4957;51.412;6.724;2023-12-29T05:39:19;10.10;99.90
9837;DHT22;4957;51.412;6.724;2023-12-29T05:41:44;10.10;99.90
9837;DHT22;4957;51.412;6.724;2023-12-29T05:44:10;10.10;99.90
9837;DHT22;4957;51.412;6.724;2023-12-29T05:46:36;10.10;99.90
9837;DHT22;4957;51.412;6.724;2023-12-29T05:49:01;10.00;99.90
9837;DHT22;4957;51.412;6.724;2023-12-29T05:51:27;10.00;99.90
9837;DHT22;4957;51.412;6.724;2023-12-29T05:53:53;10.10;99.90
9837;DHT22;4957;51.412;6.724;2023-12-29T05:56:20;10.00;99.90
9837;DHT22;4957;51.412;6.724;2023-12-29T05:58:45;10.00;99.90
9837;DHT22;4957;51.412;6.724;2023-12-29T06:01:11;10.00;99.90
9837;DHT22;4957;51.412;6.724;2023-12-29T06:03:37;10.00;99.90
9837;DHT22;4957;51.412;6.724;2023-12-29T06:06:03;10.00;99.90
9837;DHT22;4957;51.412;6.724;2023-12-29T06:08:29;10.00;99.90
9837;DHT22;4957;51.412;6.724;2023-12-29T06:10:54;10.10;99.90
9837;DHT22;4957;51.412;6.724;2023-12-29T06:13:20;10.00;99.90
9837;DHT22;4957;51.412;6.724;2023-12-29T06:15:46;10.00;99.90
9837;DHT22;4957;51.412;6.724;2023-12-29T06:18:12;10.00;99.90
9837;DHT22;4957;51.412;6.724;2023-12-29T06:20:37;10.00;99.90
9837;DHT22;4957;51.412;6.724;2023-12-29T06:23:03;10.00;99.90
9837;DHT22;4957;51.412;6.724;2023-12-29T06:25:29;10.00;99.90
9837;DHT22;4957;51.412;6.724;2023-12-29T06:27:55;9.90;99.90
9837;DHT22;4957;51.412;6.724;2023-12-29T06:30:20;10.00;99.90
9837;DHT22;4957;51.412;6.724;2023-12-29T06:32:46;9.90;99.90
9837;DHT22;4957;51.412;6.724;2023-12-29T06:35:12;9.90;99.90
9837;DHT22;4957;51.412;6.724;2023-12-29T06:37:39;9.90;99.90
9837;DHT22;4957;51.412;6.724;2023-12-29T06:40:06;9.90;99.90
9837;DHT22;4957;51.412;6.724;2023-12-29T06:42:32;9.90;99.90
9837;DHT22;4957;51.412;6.724;2023-12-29T06:44:57;9.90;99.90
9837;DHT22;4957;51.412;6.724;2023-12-29T06:47:23;9.90;99.90
9837;DHT22;4957;51.412;6.724;2023-12-29T06:49:49;9.90;99.90
9837;DHT22;4957;51.412;6.724;2023-12-29T06:52:16;9.90;99.90
9837;DHT22;4957;51.412;6.724;2023-12-29T06:54:42;9.90;99.90
9837;DHT22;4957;51.412;6.724;2023-12-29T06:57:08;9.90;99.90
9837;DHT22;4957;51.412;6.724;2023-12-29T06:59:33;9.90;99.90
9837;DHT22;4957;51.412;6.724;2023-12-29T07:01:59;9.90;99.90
9837;DHT22;4957;51.412;6.724;2023-12-29T07:04:25;9.90;99.90
9837;DHT22;4957;51.412;6.724;2023-12-29T07:06:50;9.90;99.90
9837;DHT22;4957;51.412;6.724;2023-12-29T07:09:16;9.90;99.90
9837;DHT22;4957;51.412;6.724;2023-12-29T07:11:47;9.90;99.90
9837;DHT22;4957;51.412;6.724;2023-12-29T07:14:13;9.90;99.90
9837;DHT22;4957;51.412;6.724;2023-12-29T07:16:39;10.00;99.90
9837;DHT22;4957;51.412;6.724;2023-12-29T07:19:05;10.00;99.90
9837;DHT22;4957;51.412;6.724;2023-12-29T07:21:31;10.00;99.90
9837;DHT22;4957;51.412;6.724;2023-12-29T07:23:56;10.00;99.90
9837;DHT22;4957;51.412;6.724;2023-12-29T07:26:22;10.00;99.90
9837;DHT22;4957;51.412;6.724;2023-12-29T07:28:48;10.00;99.90
9837;DHT22;4957;51.412;6.724;2023-12-29T07:31:13;10.00;99.90
9837;DHT22;4957;51.412;6.724;2023-12-29T07:33:39;10.00;99.90
9837;DHT22;4957;51.412;6.724;2023-12-29T07:36:05;10.00;99.90
9837;DHT22;4957;51.412;6.724;2023-12-29T07:38:31;10.00;99.90
9837;DHT22;4957;51.412;6.724;2023-12-29T07:40:57;10.00;99.90
9837;DHT22;4957;51.412;6.724;2023-12-29T07:43:22;10.00;99.90
9837;DHT22;4957;51.412;6.724;2023-12-29T07:45:48;10.00;99.90
9837;DHT22;4957;51.412;6.724;2023-12-29T07:48:13;10.00;99.90
9837;DHT22;4957;51.412;6.724;2023-12-29T07:50:39;10.00;99.90
9837;DHT22;4957;51.412;6.724;2023-12-29T07:53:06;10.00;99.90
9837;DHT22;4957;51.412;6.724;2023-12-29T07:55:31;10.00;99.90
9837;DHT22;4957;51.412;6.724;2023-12-29T07:57:57;10.00;99.90
9837;DHT22;4957;51.412;6.724;2023-12-29T08:00:23;10.00;99.90
9837;DHT22;4957;51.412;6.724;2023-12-29T08:02:49;10.00;99.90
9837;DHT22;4957;51.412;6.724;2023-12-29T08:05:15;10.00;99.90
9837;DHT22;4957;51.412;6.724;2023-12-29T08:07:42;10.00;99.90
9837;DHT22;4957;51.412;6.724;2023-12-29T08:10:09;10.00;99.90
9837;DHT22;4957;51.412;6.724;2023-12-29T08:12:35;10.00;99.90
9837;DHT22;4957;51.412;6.724;2023-12-29T08:15:04;10.00;99.90
9837;DHT22;4957;51.412;6.724;2023-12-29T08:17:30;10.00;99.90
9837;DHT22;4957;51.412;6.724;2023-12-29T08:19:56;10.10;99.90
9837;DHT22;4957;51.412;6.724;2023-12-29T08:22:22;10.00;99.90
9837;DHT22;4957;51.412;6.724;2023-12-29T08:24:48;10.00;99.90
9837;DHT22;4957;51.412;6.724;2023-12-29T08:27:14;10.10;99.90
9837;DHT22;4957;51.412;6.724;2023-12-29T08:29:40;10.10;99.90
9837;DHT22;4957;51.412;6.724;2023-12-29T08:32:06;10.10;99.90
9837;DHT22;4957;51.412;6.724;2023-12-29T08:34:32;10.10;99.90
9837;DHT22;4957;51.412;6.724;2023-12-29T08:36:59;10.10;99.90
9837;DHT22;4957;51.412;6.724;2023-12-29T08:39:25;10.10;99.90
9837;DHT22;4957;51.412;6.724;2023-12-29T08:41:51;10.10;99.90
9837;DHT22;4957;51.412;6.724;2023-12-29T08:44:16;10.10;99.90
9837;DHT22;4957;51.412;6.724;2023-12-29T08:46:42;10.10;99.90
9837;DHT22;4957;51.412;6.724;2023-12-29T08:49:08;10.10;99.90
9837;DHT22;4957;51.412;6.724;2023-12-29T08:51:34;10.10;99.90
9837;DHT22;4957;51.412;6.724;2023-12-29T08:54:00;10.20;99.90
9837;DHT22;4957;51.412;6.724;2023-12-29T08:56:25;10.10;99.90
9837;DHT22;4957;51.412;6.724;2023-12-29T08:58:51;10.20;99.90
9837;DHT22;4957;51.412;6.724;2023-12-29T09:01:18;10.20;99.90
9837;DHT22;4957;51.412;6.724;2023-12-29T09:03:43;10.20;99.90
9837;DHT22;4957;51.412;6.724;2023-12-29T09:06:09;10.20;99.90
9837;DHT22;4957;51.412;6.724;2023-12-29T09:08:35;10.20;99.90
9837;DHT22;4957;51.412;6.724;2023-12-29T09:11:01;10.20;99.90
9837;DHT22;4957;51.412;6.724;2023-12-29T09:13:28;10.20;99.90
9837;DHT22;4957;51.412;6.724;2023-12-29T09:15:54;10.20;99.90
9837;DHT22;4957;51.412;6.724;2023-12-29T09:18:20;10.20;99.90
9837;DHT22;4957;51.412;6.724;2023-12-29T09:20:46;10.20;99.90
9837;DHT22;4957;51.412;6.724;2023-12-29T09:23:13;10.30;99.90
9837;DHT22;4957;51.412;6.724;2023-12-29T09:25:39;10.30;99.90
9837;DHT22;4957;51.412;6.724;2023-12-29T09:28:05;10.30;99.90
9837;DHT22;4957;51.412;6.724;2023-12-29T09:30:31;10.30;99.90
9837;DHT22;4957;51.412;6.724;2023-12-29T09:32:56;10.30;99.90
9837;DHT22;4957;51.412;6.724;2023-12-29T09:35:22;10.40;99.90
9837;DHT22;4957;51.412;6.724;2023-12-29T09:37:48;10.40;99.90
9837;DHT22;4957;51.412;6.724;2023-12-29T09:40:17;10.40;99.90
9837;DHT22;4957;51.412;6.724;2023-12-29T09:42:46;10.40;99.90
9837;DHT22;4957;51.412;6.724;2023-12-29T09:45:13;10.40;99.90
9837;DHT22;4957;51.412;6.724;2023-12-29T09:47:41;10.40;99.90
9837;DHT22;4957;51.412;6.724;2023-12-29T09:50:10;10.40;99.90
9837;DHT22;4957;51.412;6.724;2023-12-29T09:52:38;10.40;99.90
9837;DHT22;4957;51.412;6.724;2023-12-29T09:55:05;10.40;99.90
9837;DHT22;4957;51.412;6.724;2023-12-29T09:57:35;10.40;99.90
9837;DHT22;4957;51.412;6.724;2023-12-29T10:00:02;10.40;99.90
9837;DHT22;4957;51.412;6.724;2023-12-29T10:02:28;10.50;99.90
9837;DHT22;4957;51.412;6.724;2023-12-29T10:04:54;10.40;99.90
9837;DHT22;4957;51.412;6.724;2023-12-29T10:07:25;10.40;99.90
9837;DHT22;4957;51.412;6.724;2023-12-29T10:09:55;10.50;99.90
9837;DHT22;4957;51.412;6.724;2023-12-29T10:12:24;10.50;99.90
9837;DHT22;4957;51.412;6.724;2023-12-29T10:15:21;10.40;99.90
9837;DHT22;4957;51.412;6.724;2023-12-29T10:20:48;10.50;99.90
9837;DHT22;4957;51.412;6.724;2023-12-29T10:23:49;10.50;99.90
9837;DHT22;4957;51.412;6.724;2023-12-29T10:26:18;10.50;99.90
9837;DHT22;4957;51.412;6.724;2023-12-29T10:28:46;10.50;99.90
9837;DHT22;4957;51.412;6.724;2023-12-29T10:31:15;10.50;99.90
9837;DHT22;4957;51.412;6.724;2023-12-29T10:33:41;10.50;99.90
9837;DHT22;4957;51.412;6.724;2023-12-29T10:36:07;10.60;99.90
9837;DHT22;4957;51.412;6.724;2023-12-29T10:38:34;10.60;99.90
9837;DHT22;4957;51.412;6.724;2023-12-29T10:41:19;10.60;99.90
9837;DHT22;4957;51.412;6.724;2023-12-29T10:43:46;10.60;99.90
9837;DHT22;4957;51.412;6.724;2023-12-29T10:46:25;10.60;99.90
9837;DHT22;4957;51.412;6.724;2023-12-29T10:48:51;10.60;99.90
9837;DHT22;4957;51.412;6.724;2023-12-29T10:51:26;10.70;99.90
9837;DHT22;4957;51.412;6.724;2023-12-29T10:53:55;10.70;99.90
9837;DHT22;4957;51.412;6.724;2023-12-29T10:56:24;10.70;99.90
9837;DHT22;4957;51.412;6.724;2023-12-29T10:59:02;10.70;99.90
9837;DHT22;4957;51.412;6.724;2023-12-29T11:01:35;10.70;99.90
9837;DHT22;4957;51.412;6.724;2023-12-29T11:04:04;10.80;99.90
9837;DHT22;4957;51.412;6.724;2023-12-29T11:06:43;10.80;99.90
9837;DHT22;4957;51.412;6.724;2023-12-29T11:09:12;10.80;99.90
9837;DHT22;4957;51.412;6.724;2023-12-29T11:11:38;10.80;99.90
9837;DHT22;4957;51.412;6.724;2023-12-29T11:14:05;10.80;99.90
9837;DHT22;4957;51.412;6.724;2023-12-29T11:16:31;10.90;99.90
9837;DHT22;4957;51.412;6.724;2023-12-29T11:19:01;10.90;99.90
9837;DHT22;4957;51.412;6.724;2023-12-29T11:21:30;10.90;99.90
9837;DHT22;4957;51.412;6.724;2023-12-29T11:23:57;11.00;99.90
9837;DHT22;4957;51.412;6.724;2023-12-29T11:26:24;11.00;99.90
9837;DHT22;4957;51.412;6.724;2023-12-29T11:28:51;11.00;99.90
9837;DHT22;4957;51.412;6.724;2023-12-29T11:31:18;11.00;99.90
9837;DHT22;4957;51.412;6.724;2023-12-29T11:33:52;11.00;99.90
9837;DHT22;4957;51.412;6.724;2023-12-29T11:36:28;11.10;99.90
9837;DHT22;4957;51.412;6.724;2023-12-29T11:39:02;11.10;99.90
9837;DHT22;4957;51.412;6.724;2023-12-29T11:43:59;11.10;99.90
9837;DHT22;4957;51.412;6.724;2023-12-29T11:46:44;11.10;99.90
9837;DHT22;4957;51.412;6.724;2023-12-29T11:49:10;11.10;99.90
9837;DHT22;4957;51.412;6.724;2023-12-29T11:51:39;11.20;99.90
9837;DHT22;4957;51.412;6.724;2023-12-29T11:54:06;11.20;99.90
9837;DHT22;4957;51.412;6.724;2023-12-29T11:56:34;11.20;99.90
9837;DHT22;4957;51.412;6.724;2023-12-29T11:59:26;11.20;99.90
9837;DHT22;4957;51.412;6.724;2023-12-29T12:01:57;11.20;99.90
9837;DHT22;4957;51.412;6.724;2023-12-29T12:04:41;11.20;99.90
9837;DHT22;4957;51.412;6.724;2023-12-29T12:09:49;11.30;99.90
9837;DHT22;4957;51.412;6.724;2023-12-29T12:12:39;11.30;99.90
9837;DHT22;4957;51.412;6.724;2023-12-29T12:17:52;11.30;99.90
9837;DHT22;4957;51.412;6.724;2023-12-29T12:20:18;11.30;99.90
9837;DHT22;4957;51.412;6.724;2023-12-29T12:22:44;11.30;99.90
9837;DHT22;4957;51.412;6.724;2023-12-29T12:25:12;11.20;99.90
9837;DHT22;4957;51.412;6.724;2023-12-29T12:27:38;11.30;99.90
9837;DHT22;4957;51.412;6.724;2023-12-29T12:30:05;11.30;99.90
9837;DHT22;4957;51.412;6.724;2023-12-29T12:32:32;11.30;99.90
9837;DHT22;4957;51.412;6.724;2023-12-29T12:34:58;11.30;99.90
9837;DHT22;4957;51.412;6.724;2023-12-29T12:37:27;11.30;99.90
9837;DHT22;4957;51.412;6.724;2023-12-29T12:39:55;11.30;99.90
9837;DHT22;4957;51.412;6.724;2023-12-29T12:42:23;11.30;99.90
9837;DHT22;4957;51.412;6.724;2023-12-29T12:45:12;11.30;99.90
9837;DHT22;4957;51.412;6.724;2023-12-29T12:47:59;11.30;99.90
9837;DHT22;4957;51.412;6.724;2023-12-29T12:50:26;11.30;99.90
9837;DHT22;4957;51.412;6.724;2023-12-29T12:52:54;11.30;99.90
9837;DHT22;4957;51.412;6.724;2023-12-29T12:55:21;11.30;99.90
9837;DHT22;4957;51.412;6.724;2023-12-29T12:57:49;11.30;99.90
9837;DHT22;4957;51.412;6.724;2023-12-29T13:00:15;11.30;99.90
9837;DHT22;4957;51.412;6.724;2023-12-29T13:02:45;11.30;99.90
9837;DHT22;4957;51.412;6.724;2023-12-29T13:05:12;11.30;99.90
9837;DHT22;4957;51.412;6.724;2023-12-29T13:07:38;11.30;99.90
9837;DHT22;4957;51.412;6.724;2023-12-29T13:10:07;11.30;99.90
9837;DHT22;4957;51.412;6.724;2023-12-29T13:12:34;11.40;99.90
9837;DHT22;4957;51.412;6.724;2023-12-29T13:15:07;11.30;99.90
9837;DHT22;4957;51.412;6.724;2023-12-29T13:17:36;11.30;99.90
9837;DHT22;4957;51.412;6.724;2023-12-29T13:20:02;11.30;99.90
9837;DHT22;4957;51.412;6.724;2023-12-29T13:22:30;11.30;99.90
9837;DHT22;4957;51.412;6.724;2023-12-29T13:24:55;11.30;99.90
9837;DHT22;4957;51.412;6.724;2023-12-29T13:27:22;11.30;99.90
9837;DHT22;4957;51.412;6.724;2023-12-29T13:29:48;11.30;99.90
9837;DHT22;4957;51.412;6.724;2023-12-29T13:32:21;11.40;99.90
9837;DHT22;4957;51.412;6.724;2023-12-29T13:35:11;11.30;99.90
9837;DHT22;4957;51.412;6.724;2023-12-29T13:40:38;11.40;99.90
9837;DHT22;4957;51.412;6.724;2023-12-29T13:43:08;11.30;99.90
9837;DHT22;4957;51.412;6.724;2023-12-29T13:45:36;11.30;99.90
9837;DHT22;4957;51.412;6.724;2023-12-29T13:48:04;11.40;99.90
9837;DHT22;4957;51.412;6.724;2023-12-29T13:50:32;11.30;99.90
9837;DHT22;4957;51.412;6.724;2023-12-29T13:52:58;11.40;99.90
9837;DHT22;4957;51.412;6.724;2023-12-29T13:55:24;11.40;99.90
9837;DHT22;4957;51.412;6.724;2023-12-29T13:57:53;11.40;99.90
9837;DHT22;4957;51.412;6.724;2023-12-29T14:00:21;11.40;99.90
9837;DHT22;4957;51.412;6.724;2023-12-29T14:08:16;11.40;99.90
9837;DHT22;4957;51.412;6.724;2023-12-29T14:10:44;11.30;99.90
9837;DHT22;4957;51.412;6.724;2023-12-29T14:13:11;11.40;99.90
9837;DHT22;4957;51.412;6.724;2023-12-29T14:15:42;11.40;99.90
9837;DHT22;4957;51.412;6.724;2023-12-29T14:20:47;11.40;99.90
9837;DHT22;4957;51.412;6.724;2023-12-29T14:23:13;11.30;99.90
9837;DHT22;4957;51.412;6.724;2023-12-29T14:25:39;11.30;99.90
9837;DHT22;4957;51.412;6.724;2023-12-29T14:28:18;11.30;99.90
9837;DHT22;4957;51.412;6.724;2023-12-29T14:30:44;11.30;99.90
9837;DHT22;4957;51.412;6.724;2023-12-29T14:33:10;11.30;99.90
9837;DHT22;4957;51.412;6.724;2023-12-29T14:35:36;11.30;99.90
9837;DHT22;4957;51.412;6.724;2023-12-29T14:38:02;11.30;99.90
9837;DHT22;4957;51.412;6.724;2023-12-29T14:40:27;11.30;99.90
9837;DHT22;4957;51.412;6.724;2023-12-29T14:42:53;11.20;99.90
9837;DHT22;4957;51.412;6.724;2023-12-29T14:45:19;11.30;99.90
9837;DHT22;4957;51.412;6.724;2023-12-29T14:47:44;11.30;99.90
9837;DHT22;4957;51.412;6.724;2023-12-29T14:50:15;11.20;99.90
9837;DHT22;4957;51.412;6.724;2023-12-29T14:52:41;11.20;99.90
9837;DHT22;4957;51.412;6.724;2023-12-29T14:55:07;11.20;99.90
9837;DHT22;4957;51.412;6.724;2023-12-29T14:57:32;11.20;99.90
9837;DHT22;4957;51.412;6.724;2023-12-29T14:59:58;11.20;99.90
9837;DHT22;4957;51.412;6.724;2023-12-29T15:02:23;11.20;99.90
9837;DHT22;4957;51.412;6.724;2023-12-29T15:04:49;11.10;99.90
9837;DHT22;4957;51.412;6.724;2023-12-29T15:07:16;11.20;99.90
9837;DHT22;4957;51.412;6.724;2023-12-29T15:09:42;11.10;99.90
9837;DHT22;4957;51.412;6.724;2023-12-29T15:12:08;11.10;99.90
9837;DHT22;4957;51.412;6.724;2023-12-29T15:14:34;11.10;99.90
9837;DHT22;4957;51.412;6.724;2023-12-29T15:16:59;11.10;99.90
9837;DHT22;4957;51.412;6.724;2023-12-29T15:19:25;11.10;99.90
9837;DHT22;4957;51.412;6.724;2023-12-29T15:21:51;11.10;99.90
9837;DHT22;4957;51.412;6.724;2023-12-29T15:24:22;11.00;99.90
9837;DHT22;4957;51.412;6.724;2023-12-29T15:26:48;11.00;99.90
9837;DHT22;4957;51.412;6.724;2023-12-29T15:29:14;11.00;99.90
9837;DHT22;4957;51.412;6.724;2023-12-29T15:31:43;11.00;99.90
9837;DHT22;4957;51.412;6.724;2023-12-29T15:34:13;11.00;99.90
9837;DHT22;4957;51.412;6.724;2023-12-29T15:36:38;11.00;99.90
9837;DHT22;4957;51.412;6.724;2023-12-29T15:39:04;11.00;99.90
9837;DHT22;4957;51.412;6.724;2023-12-29T15:41:34;11.00;99.90
9837;DHT22;4957;51.412;6.724;2023-12-29T15:43:59;11.00;99.90
9837;DHT22;4957;51.412;6.724;2023-12-29T15:46:25;11.00;99.90
9837;DHT22;4957;51.412;6.724;2023-12-29T15:48:51;11.00;99.90
9837;DHT22;4957;51.412;6.724;2023-12-29T15:51:17;11.00;99.90
9837;DHT22;4957;51.412;6.724;2023-12-29T15:53:43;11.00;99.90
9837;DHT22;4957;51.412;6.724;2023-12-29T15:56:16;10.90;99.90
9837;DHT22;4957;51.412;6.724;2023-12-29T15:58:44;10.90;99.90
9837;DHT22;4957;51.412;6.724;2023-12-29T16:01:10;10.90;99.90
9837;DHT22;4957;51.412;6.724;2023-12-29T16:03:36;10.90;99.90
9837;DHT22;4957;51.412;6.724;2023-12-29T16:06:01;10.90;99.90
9837;DHT22;4957;51.412;6.724;2023-12-29T16:08:28;10.90;99.90
9837;DHT22;4957;51.412;6.724;2023-12-29T16:10:54;10.90;99.90
9837;DHT22;4957;51.412;6.724;2023-12-29T16:13:19;10.90;99.90
9837;DHT22;4957;51.412;6.724;2023-12-29T16:15:45;11.00;99.90
9837;DHT22;4957;51.412;6.724;2023-12-29T16:18:13;11.00;99.90
9837;DHT22;4957;51.412;6.724;2023-12-29T16:20:39;10.90;99.90
9837;DHT22;4957;51.412;6.724;2023-12-29T16:23:08;10.90;99.90
9837;DHT22;4957;51.412;6.724;2023-12-29T16:25:34;10.90;99.90
9837;DHT22;4957;51.412;6.724;2023-12-29T16:27:59;10.90;99.90